sensor_id;sensor_type;location;lat;lon;timestamp;P1;durP1;ratioP1;P2;durP2;ratioP2
31746;SDS011;18319;48.974;8.462;2022-12-18T00:00:12;39.30;;;17.23;;
31746;SDS011;18319;48.974;8.462;2022-12-18T00:02:39;39.47;;;15.57;;
31746;SDS011;18319;48.974;8.462;2022-12-18T00:05:08;33.63;;;15.70;;
31746;SDS011;18319;48.974;8.462;2022-12-18T00:07:35;33.67;;;15.33;;
31746;SDS011;18319;48.974;8.462;2022-12-18T00:10:03;35.03;;;14.87;;
31746;SDS011;18319;48.974;8.462;2022-12-18T00:12:30;34.80;;;15.30;;
31746;SDS011;18319;48.974;8.462;2022-12-18T00:14:57;36.87;;;15.67;;
31746;SDS011;18319;48.974;8.462;2022-12-18T00:17:24;34.00;;;15.27;;
31746;SDS011;18319;48.974;8.462;2022-12-18T00:19:51;24.57;;;13.27;;
31746;SDS011;18319;48.974;8.462;2022-12-18T00:22:20;24.93;;;15.07;;
31746;SDS011;18319;48.974;8.462;2022-12-18T00:24:47;40.40;;;17.97;;
31746;SDS011;18319;48.974;8.462;2022-12-18T00:27:14;35.90;;;16.37;;
31746;SDS011;18319;48.974;8.462;2022-12-18T00:29:41;30.80;;;15.00;;
31746;SDS011;18319;48.974;8.462;2022-12-18T00:32:08;28.90;;;15.57;;
31746;SDS011;18319;48.974;8.462;2022-12-18T00:34:35;24.70;;;14.67;;
31746;SDS011;18319;48.974;8.462;2022-12-18T00:37:02;31.87;;;16.10;;
31746;SDS011;18319;48.974;8.462;2022-12-18T00:39:31;36.63;;;17.27;;
31746;SDS011;18319;48.974;8.462;2022-12-18T00:41:58;38.60;;;16.50;;
31746;SDS011;18319;48.974;8.462;2022-12-18T00:44:43;33.17;;;14.57;;
31746;SDS011;18319;48.974;8.462;2022-12-18T00:47:10;40.10;;;16.67;;
31746;SDS011;18319;48.974;8.462;2022-12-18T00:49:37;28.03;;;14.87;;
31746;SDS011;18319;48.974;8.462;2022-12-18T00:52:04;37.87;;;16.03;;
31746;SDS011;18319;48.974;8.462;2022-12-18T00:54:32;32.13;;;15.53;;
31746;SDS011;18319;48.974;8.462;2022-12-18T00:56:59;28.23;;;14.63;;
31746;SDS011;18319;48.974;8.462;2022-12-18T00:59:27;31.03;;;15.07;;
31746;SDS011;18319;48.974;8.462;2022-12-18T01:01:55;26.93;;;13.13;;
31746;SDS011;18319;48.974;8.462;2022-12-18T01:04:22;33.20;;;14.33;;
31746;SDS011;18319;48.974;8.462;2022-12-18T01:06:49;31.43;;;14.00;;
31746;SDS011;18319;48.974;8.462;2022-12-18T01:09:16;29.77;;;14.77;;
31746;SDS011;18319;48.974;8.462;2022-12-18T01:11:44;38.20;;;17.13;;
31746;SDS011;18319;48.974;8.462;2022-12-18T01:14:11;22.37;;;12.27;;
31746;SDS011;18319;48.974;8.462;2022-12-18T01:16:38;42.70;;;17.17;;
31746;SDS011;18319;48.974;8.462;2022-12-18T01:19:05;37.53;;;13.07;;
31746;SDS011;18319;48.974;8.462;2022-12-18T01:21:33;35.13;;;15.13;;
31746;SDS011;18319;48.974;8.462;2022-12-18T01:24:00;29.83;;;14.13;;
31746;SDS011;18319;48.974;8.462;2022-12-18T01:26:27;37.07;;;15.40;;
31746;SDS011;18319;48.974;8.462;2022-12-18T01:28:56;31.07;;;14.10;;
31746;SDS011;18319;48.974;8.462;2022-12-18T01:31:24;39.30;;;15.97;;
31746;SDS011;18319;48.974;8.462;2022-12-18T01:33:52;30.47;;;12.63;;
31746;SDS011;18319;48.974;8.462;2022-12-18T01:36:20;34.13;;;14.67;;
31746;SDS011;18319;48.974;8.462;2022-12-18T01:38:48;24.17;;;12.37;;
31746;SDS011;18319;48.974;8.462;2022-12-18T01:41:16;33.47;;;15.03;;
31746;SDS011;18319;48.974;8.462;2022-12-18T01:43:45;38.80;;;16.07;;
31746;SDS011;18319;48.974;8.462;2022-12-18T01:46:13;34.80;;;15.70;;
31746;SDS011;18319;48.974;8.462;2022-12-18T01:48:43;36.17;;;15.13;;
31746;SDS011;18319;48.974;8.462;2022-12-18T01:51:11;29.87;;;15.63;;
31746;SDS011;18319;48.974;8.462;2022-12-18T01:53:39;31.47;;;14.73;;
31746;SDS011;18319;48.974;8.462;2022-12-18T01:56:07;30.37;;;13.43;;
31746;SDS011;18319;48.974;8.462;2022-12-18T01:58:37;34.07;;;14.13;;
31746;SDS011;18319;48.974;8.462;2022-12-18T02:01:06;24.33;;;13.47;;
31746;SDS011;18319;48.974;8.462;2022-12-18T02:03:34;27.63;;;13.47;;
31746;SDS011;18319;48.974;8.462;2022-12-18T02:06:05;34.00;;;15.87;;
31746;SDS011;18319;48.974;8.462;2022-12-18T02:08:36;28.37;;;13.63;;
31746;SDS011;18319;48.974;8.462;2022-12-18T02:11:06;24.87;;;13.73;;
31746;SDS011;18319;48.974;8.462;2022-12-18T02:13:36;29.17;;;12.87;;
31746;SDS011;18319;48.974;8.462;2022-12-18T02:16:05;26.70;;;11.90;;
31746;SDS011;18319;48.974;8.462;2022-12-18T02:18:36;23.63;;;12.83;;
31746;SDS011;18319;48.974;8.462;2022-12-18T02:21:08;30.53;;;14.37;;
31746;SDS011;18319;48.974;8.462;2022-12-18T02:23:45;31.90;;;15.03;;
31746;SDS011;18319;48.974;8.462;2022-12-18T02:26:16;38.23;;;14.40;;
31746;SDS011;18319;48.974;8.462;2022-12-18T02:28:46;28.90;;;12.93;;
31746;SDS011;18319;48.974;8.462;2022-12-18T02:31:14;35.00;;;14.30;;
31746;SDS011;18319;48.974;8.462;2022-12-18T02:33:43;42.27;;;17.67;;
31746;SDS011;18319;48.974;8.462;2022-12-18T02:36:11;33.03;;;14.60;;
31746;SDS011;18319;48.974;8.462;2022-12-18T02:38:40;28.40;;;15.10;;
31746;SDS011;18319;48.974;8.462;2022-12-18T02:41:08;39.17;;;15.30;;
31746;SDS011;18319;48.974;8.462;2022-12-18T02:43:36;35.27;;;12.90;;
31746;SDS011;18319;48.974;8.462;2022-12-18T02:48:45;36.27;;;15.03;;
31746;SDS011;18319;48.974;8.462;2022-12-18T02:51:14;29.13;;;13.77;;
31746;SDS011;18319;48.974;8.462;2022-12-18T02:53:45;28.43;;;14.17;;
31746;SDS011;18319;48.974;8.462;2022-12-18T02:56:13;26.27;;;13.93;;
31746;SDS011;18319;48.974;8.462;2022-12-18T02:58:45;38.20;;;13.33;;
31746;SDS011;18319;48.974;8.462;2022-12-18T03:01:15;26.30;;;13.43;;
31746;SDS011;18319;48.974;8.462;2022-12-18T03:03:44;35.07;;;15.43;;
31746;SDS011;18319;48.974;8.462;2022-12-18T03:06:14;34.30;;;14.03;;
31746;SDS011;18319;48.974;8.462;2022-12-18T03:08:47;29.53;;;13.37;;
31746;SDS011;18319;48.974;8.462;2022-12-18T03:11:15;29.90;;;14.43;;
31746;SDS011;18319;48.974;8.462;2022-12-18T03:14:03;34.47;;;14.70;;
31746;SDS011;18319;48.974;8.462;2022-12-18T03:16:32;29.17;;;13.50;;
31746;SDS011;18319;48.974;8.462;2022-12-18T03:19:01;30.53;;;14.43;;
31746;SDS011;18319;48.974;8.462;2022-12-18T03:21:31;36.90;;;16.87;;
31746;SDS011;18319;48.974;8.462;2022-12-18T03:24:00;27.77;;;13.77;;
31746;SDS011;18319;48.974;8.462;2022-12-18T03:26:28;31.13;;;15.00;;
31746;SDS011;18319;48.974;8.462;2022-12-18T03:28:56;30.90;;;14.47;;
31746;SDS011;18319;48.974;8.462;2022-12-18T03:31:27;33.63;;;13.37;;
31746;SDS011;18319;48.974;8.462;2022-12-18T03:33:56;25.63;;;13.27;;
31746;SDS011;18319;48.974;8.462;2022-12-18T03:36:24;29.57;;;12.83;;
31746;SDS011;18319;48.974;8.462;2022-12-18T03:38:51;29.30;;;13.23;;
31746;SDS011;18319;48.974;8.462;2022-12-18T03:41:19;25.93;;;12.70;;
31746;SDS011;18319;48.974;8.462;2022-12-18T03:43:52;32.60;;;13.00;;
31746;SDS011;18319;48.974;8.462;2022-12-18T03:46:23;26.13;;;13.30;;
31746;SDS011;18319;48.974;8.462;2022-12-18T03:48:55;32.40;;;15.10;;
31746;SDS011;18319;48.974;8.462;2022-12-18T03:51:24;38.37;;;14.53;;
31746;SDS011;18319;48.974;8.462;2022-12-18T03:53:53;33.53;;;15.27;;
31746;SDS011;18319;48.974;8.462;2022-12-18T03:56:23;29.03;;;14.33;;
31746;SDS011;18319;48.974;8.462;2022-12-18T03:58:52;31.37;;;14.57;;
31746;SDS011;18319;48.974;8.462;2022-12-18T04:01:22;28.43;;;13.27;;
31746;SDS011;18319;48.974;8.462;2022-12-18T04:03:50;28.13;;;14.33;;
31746;SDS011;18319;48.974;8.462;2022-12-18T04:06:19;33.60;;;14.40;;
31746;SDS011;18319;48.974;8.462;2022-12-18T04:08:47;28.33;;;11.97;;
31746;SDS011;18319;48.974;8.462;2022-12-18T04:11:14;30.57;;;15.50;;
31746;SDS011;18319;48.974;8.462;2022-12-18T04:13:42;35.67;;;14.20;;
31746;SDS011;18319;48.974;8.462;2022-12-18T04:16:09;35.10;;;15.73;;
31746;SDS011;18319;48.974;8.462;2022-12-18T04:18:36;30.60;;;13.43;;
31746;SDS011;18319;48.974;8.462;2022-12-18T04:21:04;31.60;;;13.40;;
31746;SDS011;18319;48.974;8.462;2022-12-18T04:23:32;27.40;;;13.87;;
31746;SDS011;18319;48.974;8.462;2022-12-18T04:25:59;28.70;;;13.13;;
31746;SDS011;18319;48.974;8.462;2022-12-18T04:28:26;31.67;;;14.43;;
31746;SDS011;18319;48.974;8.462;2022-12-18T04:30:53;28.27;;;12.60;;
31746;SDS011;18319;48.974;8.462;2022-12-18T04:33:20;29.07;;;13.50;;
31746;SDS011;18319;48.974;8.462;2022-12-18T04:35:47;24.20;;;11.40;;
31746;SDS011;18319;48.974;8.462;2022-12-18T04:38:15;25.50;;;11.37;;
31746;SDS011;18319;48.974;8.462;2022-12-18T04:40:43;21.70;;;11.03;;
31746;SDS011;18319;48.974;8.462;2022-12-18T04:43:10;33.47;;;12.30;;
31746;SDS011;18319;48.974;8.462;2022-12-18T04:45:37;35.53;;;12.43;;
31746;SDS011;18319;48.974;8.462;2022-12-18T04:48:04;37.80;;;12.80;;
31746;SDS011;18319;48.974;8.462;2022-12-18T04:50:32;25.70;;;11.67;;
31746;SDS011;18319;48.974;8.462;2022-12-18T04:52:59;24.00;;;11.40;;
31746;SDS011;18319;48.974;8.462;2022-12-18T04:55:26;25.80;;;11.80;;
31746;SDS011;18319;48.974;8.462;2022-12-18T04:57:55;31.60;;;12.10;;
31746;SDS011;18319;48.974;8.462;2022-12-18T05:00:22;33.73;;;12.73;;
31746;SDS011;18319;48.974;8.462;2022-12-18T05:02:49;31.33;;;12.63;;
31746;SDS011;18319;48.974;8.462;2022-12-18T05:05:16;24.27;;;11.00;;
31746;SDS011;18319;48.974;8.462;2022-12-18T05:07:43;23.33;;;11.13;;
31746;SDS011;18319;48.974;8.462;2022-12-18T05:10:10;31.53;;;13.70;;
31746;SDS011;18319;48.974;8.462;2022-12-18T05:12:37;34.57;;;12.87;;
31746;SDS011;18319;48.974;8.462;2022-12-18T05:15:24;32.83;;;13.07;;
31746;SDS011;18319;48.974;8.462;2022-12-18T05:17:51;30.30;;;12.47;;
31746;SDS011;18319;48.974;8.462;2022-12-18T05:20:18;37.20;;;12.77;;
31746;SDS011;18319;48.974;8.462;2022-12-18T05:22:45;27.63;;;12.47;;
31746;SDS011;18319;48.974;8.462;2022-12-18T05:25:12;27.40;;;12.23;;
31746;SDS011;18319;48.974;8.462;2022-12-18T05:27:40;35.60;;;14.93;;
31746;SDS011;18319;48.974;8.462;2022-12-18T05:30:07;37.77;;;12.90;;
31746;SDS011;18319;48.974;8.462;2022-12-18T05:32:36;29.87;;;11.53;;
31746;SDS011;18319;48.974;8.462;2022-12-18T05:35:07;28.57;;;11.90;;
31746;SDS011;18319;48.974;8.462;2022-12-18T05:37:34;20.57;;;10.37;;
31746;SDS011;18319;48.974;8.462;2022-12-18T05:40:01;33.77;;;13.00;;
31746;SDS011;18319;48.974;8.462;2022-12-18T05:42:28;27.73;;;11.80;;
31746;SDS011;18319;48.974;8.462;2022-12-18T05:44:55;29.27;;;12.63;;
31746;SDS011;18319;48.974;8.462;2022-12-18T05:47:22;34.27;;;13.40;;
31746;SDS011;18319;48.974;8.462;2022-12-18T05:49:51;35.53;;;13.40;;
31746;SDS011;18319;48.974;8.462;2022-12-18T05:52:18;27.23;;;12.70;;
31746;SDS011;18319;48.974;8.462;2022-12-18T05:54:45;31.03;;;14.33;;
31746;SDS011;18319;48.974;8.462;2022-12-18T05:57:12;33.80;;;11.90;;
31746;SDS011;18319;48.974;8.462;2022-12-18T05:59:39;32.10;;;12.40;;
31746;SDS011;18319;48.974;8.462;2022-12-18T06:02:06;23.77;;;14.10;;
31746;SDS011;18319;48.974;8.462;2022-12-18T06:04:33;29.87;;;11.77;;
31746;SDS011;18319;48.974;8.462;2022-12-18T06:07:02;25.50;;;12.30;;
31746;SDS011;18319;48.974;8.462;2022-12-18T06:09:29;28.40;;;12.20;;
31746;SDS011;18319;48.974;8.462;2022-12-18T06:11:57;24.10;;;10.73;;
31746;SDS011;18319;48.974;8.462;2022-12-18T06:14:24;28.73;;;13.77;;
31746;SDS011;18319;48.974;8.462;2022-12-18T06:16:51;30.80;;;13.23;;
31746;SDS011;18319;48.974;8.462;2022-12-18T06:19:18;33.57;;;12.10;;
31746;SDS011;18319;48.974;8.462;2022-12-18T06:21:45;22.57;;;10.20;;
31746;SDS011;18319;48.974;8.462;2022-12-18T06:24:13;36.30;;;13.53;;
31746;SDS011;18319;48.974;8.462;2022-12-18T06:26:40;29.80;;;12.20;;
31746;SDS011;18319;48.974;8.462;2022-12-18T06:29:07;36.33;;;14.37;;
31746;SDS011;18319;48.974;8.462;2022-12-18T06:31:35;35.87;;;13.87;;
31746;SDS011;18319;48.974;8.462;2022-12-18T06:34:02;29.03;;;13.23;;
31746;SDS011;18319;48.974;8.462;2022-12-18T06:36:29;28.87;;;12.83;;
31746;SDS011;18319;48.974;8.462;2022-12-18T06:38:56;35.67;;;13.00;;
31746;SDS011;18319;48.974;8.462;2022-12-18T06:41:25;26.40;;;13.00;;
31746;SDS011;18319;48.974;8.462;2022-12-18T06:43:52;28.73;;;12.73;;
31746;SDS011;18319;48.974;8.462;2022-12-18T06:46:19;32.13;;;13.80;;
31746;SDS011;18319;48.974;8.462;2022-12-18T06:48:47;21.80;;;12.10;;
31746;SDS011;18319;48.974;8.462;2022-12-18T06:51:15;42.50;;;14.00;;
31746;SDS011;18319;48.974;8.462;2022-12-18T06:53:42;31.60;;;13.67;;
31746;SDS011;18319;48.974;8.462;2022-12-18T06:56:09;28.97;;;13.10;;
31746;SDS011;18319;48.974;8.462;2022-12-18T06:58:38;29.37;;;12.00;;
31746;SDS011;18319;48.974;8.462;2022-12-18T07:01:07;26.63;;;12.83;;
31746;SDS011;18319;48.974;8.462;2022-12-18T07:03:35;34.37;;;14.13;;
31746;SDS011;18319;48.974;8.462;2022-12-18T07:06:02;32.30;;;12.23;;
31746;SDS011;18319;48.974;8.462;2022-12-18T07:08:29;32.73;;;13.67;;
31746;SDS011;18319;48.974;8.462;2022-12-18T07:10:56;36.23;;;13.27;;
31746;SDS011;18319;48.974;8.462;2022-12-18T07:13:23;29.97;;;15.87;;
31746;SDS011;18319;48.974;8.462;2022-12-18T07:15:53;28.30;;;13.00;;
31746;SDS011;18319;48.974;8.462;2022-12-18T07:18:20;36.57;;;14.87;;
31746;SDS011;18319;48.974;8.462;2022-12-18T07:20:47;30.77;;;14.23;;
31746;SDS011;18319;48.974;8.462;2022-12-18T07:23:14;32.60;;;14.30;;
31746;SDS011;18319;48.974;8.462;2022-12-18T07:25:41;29.97;;;14.80;;
31746;SDS011;18319;48.974;8.462;2022-12-18T07:28:08;38.17;;;14.60;;
31746;SDS011;18319;48.974;8.462;2022-12-18T07:30:36;33.87;;;14.30;;
31746;SDS011;18319;48.974;8.462;2022-12-18T07:33:05;26.70;;;13.03;;
31746;SDS011;18319;48.974;8.462;2022-12-18T07:35:32;36.13;;;13.13;;
31746;SDS011;18319;48.974;8.462;2022-12-18T07:37:59;27.73;;;12.97;;
31746;SDS011;18319;48.974;8.462;2022-12-18T07:40:26;42.17;;;15.97;;
31746;SDS011;18319;48.974;8.462;2022-12-18T07:42:53;35.67;;;14.30;;
31746;SDS011;18319;48.974;8.462;2022-12-18T07:45:20;37.80;;;14.63;;
31746;SDS011;18319;48.974;8.462;2022-12-18T07:47:50;28.87;;;11.83;;
31746;SDS011;18319;48.974;8.462;2022-12-18T07:50:18;25.00;;;13.70;;
31746;SDS011;18319;48.974;8.462;2022-12-18T07:52:45;28.17;;;12.57;;
31746;SDS011;18319;48.974;8.462;2022-12-18T07:55:12;31.60;;;13.47;;
31746;SDS011;18319;48.974;8.462;2022-12-18T07:57:39;32.90;;;13.37;;
31746;SDS011;18319;48.974;8.462;2022-12-18T08:00:07;31.97;;;13.30;;
31746;SDS011;18319;48.974;8.462;2022-12-18T08:02:34;38.77;;;13.03;;
31746;SDS011;18319;48.974;8.462;2022-12-18T08:05:01;31.43;;;12.47;;
31746;SDS011;18319;48.974;8.462;2022-12-18T08:07:30;31.70;;;12.47;;
31746;SDS011;18319;48.974;8.462;2022-12-18T08:10:00;28.60;;;12.10;;
31746;SDS011;18319;48.974;8.462;2022-12-18T08:12:27;35.43;;;14.67;;
31746;SDS011;18319;48.974;8.462;2022-12-18T08:14:54;32.93;;;14.00;;
31746;SDS011;18319;48.974;8.462;2022-12-18T08:17:21;36.17;;;15.13;;
31746;SDS011;18319;48.974;8.462;2022-12-18T08:19:48;32.10;;;13.57;;
31746;SDS011;18319;48.974;8.462;2022-12-18T08:22:15;32.13;;;13.17;;
31746;SDS011;18319;48.974;8.462;2022-12-18T08:24:43;39.50;;;13.30;;
31746;SDS011;18319;48.974;8.462;2022-12-18T08:27:11;38.27;;;13.93;;
31746;SDS011;18319;48.974;8.462;2022-12-18T08:29:38;39.67;;;15.30;;
31746;SDS011;18319;48.974;8.462;2022-12-18T08:32:05;42.83;;;16.60;;
31746;SDS011;18319;48.974;8.462;2022-12-18T08:34:32;43.33;;;15.40;;
31746;SDS011;18319;48.974;8.462;2022-12-18T08:36:59;35.33;;;14.47;;
31746;SDS011;18319;48.974;8.462;2022-12-18T08:39:26;31.87;;;13.23;;
31746;SDS011;18319;48.974;8.462;2022-12-18T08:41:55;30.40;;;13.57;;
31746;SDS011;18319;48.974;8.462;2022-12-18T08:44:40;42.33;;;12.93;;
31746;SDS011;18319;48.974;8.462;2022-12-18T08:47:07;36.20;;;14.17;;
31746;SDS011;18319;48.974;8.462;2022-12-18T08:49:34;35.87;;;14.17;;
31746;SDS011;18319;48.974;8.462;2022-12-18T08:52:01;37.90;;;16.03;;
31746;SDS011;18319;48.974;8.462;2022-12-18T08:54:29;38.93;;;15.47;;
31746;SDS011;18319;48.974;8.462;2022-12-18T08:56:57;43.47;;;15.73;;
31746;SDS011;18319;48.974;8.462;2022-12-18T08:59:24;32.00;;;13.83;;
31746;SDS011;18319;48.974;8.462;2022-12-18T09:01:53;47.10;;;15.20;;
31746;SDS011;18319;48.974;8.462;2022-12-18T09:04:20;31.87;;;15.27;;
31746;SDS011;18319;48.974;8.462;2022-12-18T09:06:47;37.33;;;14.90;;
31746;SDS011;18319;48.974;8.462;2022-12-18T09:09:14;35.67;;;15.93;;
31746;SDS011;18319;48.974;8.462;2022-12-18T09:11:41;39.27;;;15.00;;
31746;SDS011;18319;48.974;8.462;2022-12-18T09:14:10;48.20;;;16.23;;
31746;SDS011;18319;48.974;8.462;2022-12-18T09:16:37;38.93;;;13.83;;
31746;SDS011;18319;48.974;8.462;2022-12-18T09:19:04;34.60;;;16.17;;
31746;SDS011;18319;48.974;8.462;2022-12-18T09:21:32;33.63;;;15.07;;
31746;SDS011;18319;48.974;8.462;2022-12-18T09:23:59;34.70;;;15.07;;
31746;SDS011;18319;48.974;8.462;2022-12-18T09:26:26;35.60;;;14.87;;
31746;SDS011;18319;48.974;8.462;2022-12-18T09:28:53;35.60;;;15.17;;
31746;SDS011;18319;48.974;8.462;2022-12-18T09:31:23;38.63;;;15.27;;
31746;SDS011;18319;48.974;8.462;2022-12-18T09:33:50;38.83;;;16.00;;
31746;SDS011;18319;48.974;8.462;2022-12-18T09:36:17;36.07;;;14.23;;
31746;SDS011;18319;48.974;8.462;2022-12-18T09:38:45;40.37;;;14.70;;
31746;SDS011;18319;48.974;8.462;2022-12-18T09:41:18;40.17;;;16.33;;
31746;SDS011;18319;48.974;8.462;2022-12-18T09:43:49;32.73;;;17.03;;
31746;SDS011;18319;48.974;8.462;2022-12-18T09:46:19;31.30;;;14.63;;
31746;SDS011;18319;48.974;8.462;2022-12-18T09:48:49;38.37;;;14.97;;
31746;SDS011;18319;48.974;8.462;2022-12-18T09:51:21;34.47;;;16.20;;
31746;SDS011;18319;48.974;8.462;2022-12-18T09:53:51;44.27;;;15.50;;
31746;SDS011;18319;48.974;8.462;2022-12-18T09:56:20;29.67;;;13.73;;
31746;SDS011;18319;48.974;8.462;2022-12-18T09:58:50;34.07;;;14.00;;
31746;SDS011;18319;48.974;8.462;2022-12-18T10:01:20;30.70;;;14.27;;
31746;SDS011;18319;48.974;8.462;2022-12-18T10:03:49;31.83;;;14.77;;
31746;SDS011;18319;48.974;8.462;2022-12-18T10:06:18;42.13;;;17.20;;
31746;SDS011;18319;48.974;8.462;2022-12-18T10:08:49;39.47;;;16.50;;
31746;SDS011;18319;48.974;8.462;2022-12-18T10:11:24;32.57;;;13.93;;
31746;SDS011;18319;48.974;8.462;2022-12-18T10:13:54;36.53;;;15.87;;
31746;SDS011;18319;48.974;8.462;2022-12-18T10:16:24;35.67;;;14.47;;
31746;SDS011;18319;48.974;8.462;2022-12-18T10:18:59;37.00;;;13.90;;
31746;SDS011;18319;48.974;8.462;2022-12-18T10:21:30;40.03;;;15.57;;
31746;SDS011;18319;48.974;8.462;2022-12-18T10:23:58;38.57;;;16.70;;
31746;SDS011;18319;48.974;8.462;2022-12-18T10:26:29;33.30;;;15.10;;
31746;SDS011;18319;48.974;8.462;2022-12-18T10:28:58;36.70;;;14.63;;
31746;SDS011;18319;48.974;8.462;2022-12-18T10:31:28;47.10;;;19.83;;
31746;SDS011;18319;48.974;8.462;2022-12-18T10:33:55;39.53;;;15.37;;
31746;SDS011;18319;48.974;8.462;2022-12-18T10:36:24;39.87;;;17.07;;
31746;SDS011;18319;48.974;8.462;2022-12-18T10:38:51;38.37;;;16.13;;
31746;SDS011;18319;48.974;8.462;2022-12-18T10:41:25;42.20;;;16.97;;
31746;SDS011;18319;48.974;8.462;2022-12-18T10:44:11;47.17;;;17.33;;
31746;SDS011;18319;48.974;8.462;2022-12-18T10:46:39;32.33;;;16.03;;
31746;SDS011;18319;48.974;8.462;2022-12-18T10:49:07;34.43;;;15.93;;
31746;SDS011;18319;48.974;8.462;2022-12-18T10:51:46;36.67;;;16.17;;
31746;SDS011;18319;48.974;8.462;2022-12-18T10:54:14;38.67;;;17.83;;
31746;SDS011;18319;48.974;8.462;2022-12-18T10:56:42;38.33;;;17.57;;
31746;SDS011;18319;48.974;8.462;2022-12-18T10:59:10;48.20;;;17.93;;
31746;SDS011;18319;48.974;8.462;2022-12-18T11:01:47;32.60;;;15.37;;
31746;SDS011;18319;48.974;8.462;2022-12-18T11:04:16;43.90;;;18.23;;
31746;SDS011;18319;48.974;8.462;2022-12-18T11:06:53;42.00;;;17.03;;
31746;SDS011;18319;48.974;8.462;2022-12-18T11:09:21;42.07;;;18.37;;
31746;SDS011;18319;48.974;8.462;2022-12-18T11:11:49;45.73;;;18.07;;
31746;SDS011;18319;48.974;8.462;2022-12-18T11:14:19;51.93;;;18.10;;
31746;SDS011;18319;48.974;8.462;2022-12-18T11:16:49;38.07;;;17.30;;
31746;SDS011;18319;48.974;8.462;2022-12-18T11:19:28;42.77;;;16.90;;
31746;SDS011;18319;48.974;8.462;2022-12-18T11:21:58;34.60;;;15.53;;
31746;SDS011;18319;48.974;8.462;2022-12-18T11:24:27;38.37;;;17.83;;
31746;SDS011;18319;48.974;8.462;2022-12-18T11:26:55;41.00;;;17.13;;
31746;SDS011;18319;48.974;8.462;2022-12-18T11:29:27;51.30;;;19.87;;
31746;SDS011;18319;48.974;8.462;2022-12-18T11:32:07;41.30;;;18.27;;
31746;SDS011;18319;48.974;8.462;2022-12-18T11:34:39;37.80;;;17.20;;
31746;SDS011;18319;48.974;8.462;2022-12-18T11:37:09;44.90;;;18.17;;
31746;SDS011;18319;48.974;8.462;2022-12-18T11:39:39;39.63;;;16.80;;
31746;SDS011;18319;48.974;8.462;2022-12-18T11:42:10;45.60;;;19.73;;
31746;SDS011;18319;48.974;8.462;2022-12-18T11:44:42;45.30;;;18.80;;
31746;SDS011;18319;48.974;8.462;2022-12-18T11:47:19;41.47;;;17.13;;
31746;SDS011;18319;48.974;8.462;2022-12-18T11:49:47;52.63;;;17.50;;
31746;SDS011;18319;48.974;8.462;2022-12-18T11:52:18;43.17;;;18.53;;
31746;SDS011;18319;48.974;8.462;2022-12-18T11:54:46;39.20;;;17.80;;
31746;SDS011;18319;48.974;8.462;2022-12-18T11:57:15;42.73;;;18.87;;
31746;SDS011;18319;48.974;8.462;2022-12-18T11:59:47;42.20;;;18.20;;
31746;SDS011;18319;48.974;8.462;2022-12-18T12:02:23;43.23;;;17.90;;
31746;SDS011;18319;48.974;8.462;2022-12-18T12:05:01;40.87;;;20.10;;
31746;SDS011;18319;48.974;8.462;2022-12-18T12:07:35;36.93;;;17.63;;
31746;SDS011;18319;48.974;8.462;2022-12-18T12:10:10;40.77;;;17.20;;
31746;SDS011;18319;48.974;8.462;2022-12-18T12:12:44;41.23;;;18.90;;
31746;SDS011;18319;48.974;8.462;2022-12-18T12:15:22;47.73;;;19.27;;
31746;SDS011;18319;48.974;8.462;2022-12-18T12:17:54;46.13;;;18.53;;
31746;SDS011;18319;48.974;8.462;2022-12-18T12:20:24;39.97;;;19.00;;
31746;SDS011;18319;48.974;8.462;2022-12-18T12:22:54;43.57;;;19.37;;
31746;SDS011;18319;48.974;8.462;2022-12-18T12:25:30;45.37;;;19.87;;
31746;SDS011;18319;48.974;8.462;2022-12-18T12:28:02;49.47;;;15.77;;
31746;SDS011;18319;48.974;8.462;2022-12-18T12:30:34;39.27;;;16.70;;
31746;SDS011;18319;48.974;8.462;2022-12-18T12:33:05;45.60;;;17.80;;
31746;SDS011;18319;48.974;8.462;2022-12-18T12:35:37;31.60;;;16.67;;
31746;SDS011;18319;48.974;8.462;2022-12-18T12:38:09;36.13;;;15.90;;
31746;SDS011;18319;48.974;8.462;2022-12-18T12:40:39;42.40;;;18.67;;
31746;SDS011;18319;48.974;8.462;2022-12-18T12:43:11;41.30;;;18.20;;
31746;SDS011;18319;48.974;8.462;2022-12-18T12:45:42;36.30;;;16.90;;
31746;SDS011;18319;48.974;8.462;2022-12-18T12:48:15;34.90;;;17.47;;
31746;SDS011;18319;48.974;8.462;2022-12-18T12:50:43;38.03;;;17.10;;
31746;SDS011;18319;48.974;8.462;2022-12-18T12:53:14;45.47;;;18.83;;
31746;SDS011;18319;48.974;8.462;2022-12-18T12:55:43;49.43;;;21.37;;
31746;SDS011;18319;48.974;8.462;2022-12-18T12:58:25;43.77;;;19.93;;
31746;SDS011;18319;48.974;8.462;2022-12-18T13:00:57;43.73;;;18.80;;
31746;SDS011;18319;48.974;8.462;2022-12-18T13:03:29;44.73;;;19.53;;
31746;SDS011;18319;48.974;8.462;2022-12-18T13:06:00;46.13;;;19.43;;
31746;SDS011;18319;48.974;8.462;2022-12-18T13:08:50;43.67;;;19.80;;
31746;SDS011;18319;48.974;8.462;2022-12-18T13:11:28;45.00;;;19.90;;
31746;SDS011;18319;48.974;8.462;2022-12-18T13:14:19;41.13;;;20.03;;
31746;SDS011;18319;48.974;8.462;2022-12-18T13:16:48;40.10;;;18.33;;
31746;SDS011;18319;48.974;8.462;2022-12-18T13:19:21;39.00;;;18.10;;
31746;SDS011;18319;48.974;8.462;2022-12-18T13:21:52;45.80;;;19.63;;
31746;SDS011;18319;48.974;8.462;2022-12-18T13:24:24;41.10;;;19.30;;
31746;SDS011;18319;48.974;8.462;2022-12-18T13:26:52;41.57;;;20.60;;
31746;SDS011;18319;48.974;8.462;2022-12-18T13:29:40;38.97;;;18.67;;
31746;SDS011;18319;48.974;8.462;2022-12-18T13:32:20;48.40;;;19.63;;
31746;SDS011;18319;48.974;8.462;2022-12-18T13:34:48;43.10;;;20.50;;
31746;SDS011;18319;48.974;8.462;2022-12-18T13:40:02;46.43;;;19.70;;
31746;SDS011;18319;48.974;8.462;2022-12-18T13:42:49;45.40;;;20.63;;
31746;SDS011;18319;48.974;8.462;2022-12-18T13:45:38;37.43;;;19.50;;
31746;SDS011;18319;48.974;8.462;2022-12-18T13:48:14;34.30;;;19.60;;
31746;SDS011;18319;48.974;8.462;2022-12-18T13:50:41;39.20;;;19.30;;
31746;SDS011;18319;48.974;8.462;2022-12-18T13:53:11;45.17;;;19.83;;
31746;SDS011;18319;48.974;8.462;2022-12-18T13:55:46;36.53;;;19.00;;
31746;SDS011;18319;48.974;8.462;2022-12-18T13:58:13;39.67;;;18.80;;
31746;SDS011;18319;48.974;8.462;2022-12-18T14:00:41;43.57;;;19.40;;
31746;SDS011;18319;48.974;8.462;2022-12-18T14:03:15;40.43;;;19.00;;
31746;SDS011;18319;48.974;8.462;2022-12-18T14:05:43;47.83;;;22.43;;
31746;SDS011;18319;48.974;8.462;2022-12-18T14:08:12;48.00;;;22.27;;
31746;SDS011;18319;48.974;8.462;2022-12-18T14:10:43;49.57;;;21.80;;
31746;SDS011;18319;48.974;8.462;2022-12-18T14:13:21;42.70;;;21.40;;
31746;SDS011;18319;48.974;8.462;2022-12-18T14:15:50;43.87;;;22.50;;
31746;SDS011;18319;48.974;8.462;2022-12-18T14:18:19;38.77;;;20.33;;
31746;SDS011;18319;48.974;8.462;2022-12-18T14:20:48;41.20;;;18.83;;
31746;SDS011;18319;48.974;8.462;2022-12-18T14:23:25;51.87;;;22.57;;
31746;SDS011;18319;48.974;8.462;2022-12-18T14:25:52;40.60;;;20.87;;
31746;SDS011;18319;48.974;8.462;2022-12-18T14:28:21;45.70;;;21.50;;
31746;SDS011;18319;48.974;8.462;2022-12-18T14:30:50;39.87;;;19.43;;
31746;SDS011;18319;48.974;8.462;2022-12-18T14:33:18;45.47;;;22.60;;
31746;SDS011;18319;48.974;8.462;2022-12-18T14:35:52;39.90;;;19.80;;
31746;SDS011;18319;48.974;8.462;2022-12-18T14:38:22;39.13;;;20.33;;